KCMD

Cullman Regional-Folsom Field Airport

Cullman, Alabama, USA
METAR KCMD 221515Z AUTO 11003KT 10SM CLR 13/03 A3032 RMK AO2 T01260028
Observed Flight Rules
Oct-22 @ 15:15 UTC (8 minutes ago) Visual Flight Rules
Wind Visibility Clouds
110° at 3 knots 10 miles
  • Clear skies
Temperatures Readings
Current 13°C / 55°F
Dewpoint 3°C / 37°F
Humidity 51%
Altimeter 30.32" Hg
Pressure 1027 hPa
Elevation 294
METAR KCMD 221515Z AUTO 11003KT 10SM CLR 13/03 A3032 RMK AO2 T01260028
Observed Flight Rules
Oct-22 @ 15:15 UTC
(8 minutes ago)
VFR
Wind Visibility
110° at 3 knots 10 miles
Clouds
  • Clear skies
Temperature Dewpoint
13°C / 55°F 3°C / 37°F
Humidity Altimeter Pressure
51% 30.32" Hg 1027 hPa